createdAt,value
2019-05-13T00:01:54.123Z,7.30
2019-05-13T00:04:24.345Z,7.35
2019-05-13T00:06:57.770Z,7.37
2019-05-13T00:09:33.911Z,7.31
2019-05-13T00:12:04.596Z,7.26
2019-05-13T00:14:35.716Z,7.31
2019-05-13T00:17:05.727Z,7.32
2019-05-13T00:19:34.904Z,7.29
2019-05-13T00:22:04.153Z,7.28
2019-05-13T00:24:34.331Z,7.38
2019-05-13T00:27:05.541Z,7.20
2019-05-13T00:29:36.161Z,7.40
2019-05-13T00:32:06.538Z,7.26
2019-05-13T00:34:39.201Z,7.13
2019-05-13T00:37:11.734Z,7.03
2019-05-13T00:39:40.137Z,6.99
2019-05-13T00:42:09.734Z,6.86
2019-05-13T00:44:39.218Z,6.79
2019-05-13T00:47:08.417Z,6.80
2019-05-13T00:49:38.185Z,6.54
2019-05-13T00:52:07.686Z,6.59
2019-05-13T00:54:37.675Z,6.62
2019-05-13T00:57:07.409Z,6.58
2019-05-13T00:59:36.580Z,6.48
2019-05-13T01:02:06.024Z,6.58
2019-05-13T01:04:38.007Z,6.56
2019-05-13T01:07:25.365Z,6.51
2019-05-13T01:09:45.765Z,6.51
2019-05-13T01:12:15.264Z,6.52
2019-05-13T01:14:44.585Z,6.49
2019-05-13T01:17:14.297Z,6.53
2019-05-13T01:19:46.185Z,6.63
2019-05-13T01:22:15.353Z,6.63
2019-05-13T01:24:51.270Z,6.63
2019-05-13T01:27:23.931Z,6.66
2019-05-13T01:29:53.603Z,6.63
2019-05-13T01:32:23.829Z,6.52
2019-05-13T01:34:54.001Z,6.50
2019-05-13T01:37:38.823Z,6.46
2019-05-13T01:39:55.236Z,6.29
2019-05-13T01:42:25.467Z,6.08
2019-05-13T01:44:54.677Z,6.02
2019-05-13T01:47:24.221Z,5.96
2019-05-13T01:49:54.325Z,6.09
2019-05-13T01:52:23.847Z,6.19
2019-05-13T01:54:54.350Z,6.24
2019-05-13T01:57:25.127Z,6.26
2019-05-13T01:59:55.425Z,6.05
2019-05-13T02:02:28.130Z,6.15
2019-05-13T02:04:59.611Z,6.09
2019-05-13T02:07:29.855Z,6.08
2019-05-13T02:10:00.419Z,6.11
2019-05-13T02:12:30.343Z,6.17
2019-05-13T02:14:59.803Z,6.17
2019-05-13T02:17:31.102Z,6.07
2019-05-13T02:20:00.312Z,6.06
2019-05-13T02:22:34.389Z,6.15
2019-05-13T02:25:08.004Z,6.17
2019-05-13T02:27:37.937Z,6.15
2019-05-13T02:30:08.067Z,6.19
2019-05-13T02:32:37.792Z,6.15
2019-05-13T02:35:06.998Z,6.01
2019-05-13T02:37:38.207Z,6.05
2019-05-13T02:40:07.739Z,6.04
2019-05-13T02:42:43.680Z,6.09
2019-05-13T02:45:13.407Z,5.88
2019-05-13T02:47:45.331Z,5.82
2019-05-13T02:50:16.378Z,5.72
2019-05-13T02:52:52.963Z,5.62
2019-05-13T02:55:22.396Z,5.65
2019-05-13T02:57:52.842Z,5.58
2019-05-13T03:00:23.668Z,5.42
2019-05-13T03:02:53.208Z,5.21
2019-05-13T03:05:23.018Z,5.28
2019-05-13T03:07:53.227Z,5.08
2019-05-13T03:10:23.297Z,5.07
2019-05-13T03:12:56.024Z,5.01
2019-05-13T03:15:42.836Z,5.07
2019-05-13T03:18:13.474Z,5.04
2019-05-13T03:20:44.204Z,4.92
2019-05-13T03:23:14.042Z,4.85
2019-05-13T03:25:43.238Z,4.94
2019-05-13T03:28:16.282Z,4.88
2019-05-13T03:30:46.484Z,4.95
2019-05-13T03:33:19.925Z,4.75
2019-05-13T03:35:55.847Z,4.61
2019-05-13T03:38:25.067Z,4.81
2019-05-13T03:40:57.118Z,4.67
2019-05-13T03:43:32.316Z,4.54
2019-05-13T03:46:03.572Z,4.30
2019-05-13T03:48:35.681Z,4.42
2019-05-13T03:51:05.232Z,4.33
2019-05-13T03:53:34.688Z,4.32
2019-05-13T03:56:04.370Z,4.44
2019-05-13T03:58:33.795Z,4.56
2019-05-13T04:01:03.313Z,4.63
2019-05-13T04:03:36.923Z,4.69
2019-05-13T04:06:06.810Z,4.44
2019-05-13T04:08:37.388Z,4.33
2019-05-13T04:11:07.842Z,4.24
2019-05-13T04:13:37.337Z,4.15
2019-05-13T04:16:06.547Z,4.23
2019-05-13T04:18:35.980Z,4.13
2019-05-13T04:21:05.474Z,3.86
2019-05-13T04:23:36.031Z,3.64
2019-05-13T04:26:05.707Z,3.72
2019-05-13T04:28:35.476Z,3.84
2019-05-13T04:31:05.203Z,3.82
2019-05-13T04:33:34.958Z,3.94
2019-05-13T04:36:05.080Z,3.98
2019-05-13T04:38:34.794Z,4.03
2019-05-13T04:41:04.337Z,4.26
2019-05-13T04:43:34.717Z,4.30
2019-05-13T04:46:04.502Z,4.39
2019-05-13T04:48:39.108Z,4.53
2019-05-13T04:51:13.207Z,4.69
2019-05-13T04:53:42.784Z,4.86
2019-05-13T04:56:14.094Z,4.93
2019-05-13T04:58:43.848Z,5.04
2019-05-13T05:02:13.296Z,5.13
2019-05-13T05:04:55.413Z,5.11
2019-05-13T05:08:12.012Z,5.13
2019-05-13T05:11:13.054Z,5.20
2019-05-13T05:14:22.420Z,5.43
2019-05-13T05:17:52.188Z,5.38
2019-05-13T05:20:36.883Z,5.42
2019-05-13T05:23:48.022Z,5.53
2019-05-13T05:26:52.162Z,5.43
2019-05-13T05:29:53.829Z,5.45
2019-05-13T05:32:39.018Z,5.64
2019-05-13T05:35:46.835Z,5.47
2019-05-13T05:38:46.138Z,5.57
2019-05-13T05:41:21.458Z,5.78
2019-05-13T05:43:53.898Z,5.91
2019-05-13T05:46:25.757Z,6.18
2019-05-13T05:48:55.439Z,6.21
2019-05-13T05:51:27.097Z,6.17
2019-05-13T05:53:58.034Z,6.28
2019-05-13T05:56:32.480Z,6.30
2019-05-13T05:59:04.047Z,6.22
2019-05-13T06:01:37.192Z,6.38
2019-05-13T06:04:05.719Z,6.31
2019-05-13T06:06:36.022Z,6.42
2019-05-13T06:09:06.542Z,6.38
2019-05-13T06:11:37.290Z,6.31
2019-05-13T06:14:13.587Z,6.43
2019-05-13T06:16:43.359Z,6.34
2019-05-13T06:19:13.548Z,6.46
2019-05-13T06:21:43.078Z,6.56
2019-05-13T06:24:14.774Z,6.56
2019-05-13T06:26:44.514Z,6.81
2019-05-13T06:29:18.030Z,6.93
2019-05-13T06:31:48.331Z,6.77
2019-05-13T06:34:18.165Z,6.75
2019-05-13T06:36:47.373Z,6.77
2019-05-13T06:39:17.295Z,6.77
2019-05-13T06:41:46.764Z,6.90
2019-05-13T06:44:16.518Z,6.91
2019-05-13T06:46:46.410Z,6.87
2019-05-13T06:49:17.725Z,7.02
2019-05-13T06:51:49.119Z,7.05
2019-05-13T06:54:18.319Z,7.25
2019-05-13T06:56:48.027Z,7.30
2019-05-13T06:59:17.192Z,7.37
2019-05-13T07:01:47.736Z,7.53
2019-05-13T07:04:18.053Z,7.48
2019-05-13T07:06:48.452Z,7.64
2019-05-13T07:09:18.174Z,7.78
2019-05-13T07:11:47.768Z,7.90
2019-05-13T07:14:16.925Z,7.84
2019-05-13T07:16:46.678Z,7.83
2019-05-13T07:19:16.090Z,7.96
2019-05-13T07:21:45.837Z,7.97
2019-05-13T07:24:15.654Z,7.96
2019-05-13T07:26:45.410Z,8.04
2019-05-13T07:29:15.483Z,8.10
2019-05-13T07:31:49.025Z,8.02
2019-05-13T07:34:24.090Z,8.26
2019-05-13T07:37:04.766Z,8.46
2019-05-13T07:39:33.925Z,8.51
2019-05-13T07:42:05.941Z,8.75
2019-05-13T07:44:34.961Z,8.82
2019-05-13T07:47:04.444Z,9.07
2019-05-13T07:49:33.738Z,9.10
2019-05-13T07:52:06.379Z,9.23
2019-05-13T07:54:36.067Z,9.30
2019-05-13T07:57:08.366Z,9.39
2019-05-13T07:59:46.537Z,9.44
2019-05-13T08:02:17.087Z,9.44
2019-05-13T08:04:52.983Z,9.54
2019-05-13T08:07:25.867Z,9.78
2019-05-13T08:10:00.128Z,9.77
2019-05-13T08:12:31.912Z,10.18
2019-05-13T08:15:03.466Z,10.14
2019-05-13T08:17:33.070Z,10.26
2019-05-13T08:20:13.097Z,10.37
2019-05-13T08:22:42.680Z,10.46
2019-05-13T08:25:13.042Z,10.54
2019-05-13T08:27:42.520Z,10.78
2019-05-13T08:30:13.029Z,10.78
2019-05-13T08:32:42.591Z,10.81
2019-05-13T08:35:13.499Z,11.07
2019-05-13T08:37:44.527Z,11.16
2019-05-13T08:40:19.949Z,11.13
2019-05-13T08:42:47.494Z,11.31
2019-05-13T08:45:17.065Z,11.17
2019-05-13T08:47:46.270Z,11.26
2019-05-13T08:50:15.698Z,11.33
2019-05-13T08:52:44.911Z,11.41
2019-05-13T08:55:16.264Z,11.44
2019-05-13T08:57:45.939Z,11.60
2019-05-13T09:00:18.919Z,11.72
2019-05-13T09:02:48.360Z,11.85
2019-05-13T09:05:17.924Z,12.10
2019-05-13T09:07:51.747Z,12.24
2019-05-13T09:10:22.846Z,11.81
2019-05-13T09:12:52.333Z,12.31
2019-05-13T09:15:22.466Z,12.31
2019-05-13T09:17:54.317Z,12.23
2019-05-13T09:20:25.224Z,12.49
2019-05-13T09:22:55.055Z,12.65
2019-05-13T09:25:24.750Z,12.94
2019-05-13T09:27:58.391Z,12.82
2019-05-13T09:30:27.610Z,13.07
2019-05-13T09:32:57.529Z,12.90
2019-05-13T09:35:26.719Z,13.06
2019-05-13T09:38:03.234Z,13.35
2019-05-13T09:40:31.607Z,13.67
2019-05-13T09:43:02.585Z,13.52
2019-05-13T09:45:33.485Z,13.61
2019-05-13T09:48:02.761Z,13.80
2019-05-13T09:50:35.935Z,13.82
2019-05-13T09:53:02.898Z,13.88
2019-05-13T09:55:32.671Z,13.60
2019-05-13T09:58:02.632Z,13.62
2019-05-13T10:00:32.592Z,14.10
2019-05-13T10:03:02.248Z,14.04
2019-05-13T10:05:31.994Z,14.46
2019-05-13T10:08:02.456Z,14.29
2019-05-13T10:10:32.113Z,14.74
2019-05-13T10:13:09.348Z,15.07
2019-05-13T10:15:32.959Z,15.02
2019-05-13T10:18:02.506Z,15.10
2019-05-13T10:20:44.590Z,14.94
2019-05-13T10:23:15.171Z,15.09
2019-05-13T10:25:46.102Z,15.43
2019-05-13T10:28:15.663Z,15.48
2019-05-13T10:30:46.296Z,15.71
2019-05-13T10:33:15.575Z,15.65
2019-05-13T10:35:45.416Z,15.91
2019-05-13T10:38:15.145Z,15.55
2019-05-13T10:40:45.124Z,16.18
2019-05-13T10:43:29.917Z,16.06
2019-05-13T10:45:46.581Z,16.02
2019-05-13T10:48:22.007Z,16.42
2019-05-13T10:50:55.509Z,16.31
2019-05-13T10:53:25.277Z,16.30
2019-05-13T10:55:55.503Z,17.00
2019-05-13T10:58:24.912Z,16.29
2019-05-13T11:01:02.713Z,16.34
2019-05-13T11:03:34.557Z,16.69
2019-05-13T11:06:04.724Z,16.76
2019-05-13T11:08:34.210Z,16.77
2019-05-13T11:11:10.222Z,16.82
2019-05-13T11:13:58.043Z,16.80
2019-05-13T11:16:13.715Z,17.74
2019-05-13T11:18:47.518Z,17.40
2019-05-13T11:21:16.773Z,17.33
2019-05-13T11:23:47.307Z,17.28
2019-05-13T11:26:17.052Z,17.21
2019-05-13T11:28:46.728Z,17.21
2019-05-13T11:31:15.995Z,18.00
2019-05-13T11:33:45.273Z,18.27
2019-05-13T11:36:19.114Z,17.25
2019-05-13T11:38:47.518Z,17.38
2019-05-13T11:41:17.452Z,17.15
2019-05-13T11:44:09.275Z,17.82
2019-05-13T11:46:25.624Z,17.81
2019-05-13T11:49:07.013Z,18.12
2019-05-13T11:51:36.196Z,17.59
2019-05-13T11:54:06.936Z,17.73
2019-05-13T11:56:36.841Z,18.33
2019-05-13T11:59:08.311Z,17.85
2019-05-13T12:01:38.516Z,18.02
2019-05-13T12:04:10.090Z,18.38
2019-05-13T12:06:47.893Z,18.09
2019-05-13T12:09:13.192Z,18.55
2019-05-13T12:11:45.013Z,18.15
2019-05-13T12:14:39.178Z,18.44
2019-05-13T12:16:52.396Z,18.20
2019-05-13T12:19:24.411Z,18.54
2019-05-13T12:21:55.526Z,18.40
2019-05-13T12:24:26.272Z,18.38
2019-05-13T12:26:57.821Z,18.60
2019-05-13T12:29:27.019Z,18.53
2019-05-13T12:31:57.874Z,19.28
2019-05-13T12:34:27.119Z,19.56
2019-05-13T12:36:56.312Z,18.99
2019-05-13T12:39:26.840Z,19.70
2019-05-13T12:41:57.338Z,19.43
2019-05-13T12:44:26.810Z,19.03
2019-05-13T12:46:56.698Z,19.18
2019-05-13T12:49:43.453Z,18.94
2019-05-13T12:52:13.452Z,18.69
2019-05-13T12:54:44.551Z,18.50
2019-05-13T12:57:17.910Z,18.71
2019-05-13T12:59:47.204Z,19.16
2019-05-13T13:02:18.682Z,19.71
2019-05-13T13:05:08.793Z,19.20
2019-05-13T13:07:19.556Z,19.61
2019-05-13T13:09:53.551Z,20.19
2019-05-13T13:12:29.591Z,19.48
2019-05-13T13:14:54.584Z,19.56
2019-05-13T13:17:24.424Z,19.48
2019-05-13T13:20:09.118Z,19.49
2019-05-13T13:22:35.632Z,18.62
2019-05-13T13:25:13.015Z,19.57
2019-05-13T13:28:09.824Z,19.33
2019-05-13T13:30:14.489Z,18.96
2019-05-13T13:32:45.401Z,19.33
2019-05-13T13:35:15.785Z,19.01
2019-05-13T13:37:46.241Z,19.62
2019-05-13T13:40:24.489Z,19.90
2019-05-13T13:42:47.242Z,20.20
2019-05-13T13:45:16.854Z,19.79
2019-05-13T13:47:46.306Z,19.64
2019-05-13T13:50:16.044Z,20.38
2019-05-13T13:52:45.968Z,20.14
2019-05-13T13:55:16.696Z,20.21
2019-05-13T13:57:46.578Z,20.30
2019-05-13T14:00:32.818Z,20.64
2019-05-13T14:02:47.072Z,20.84
2019-05-13T14:05:16.815Z,20.39
2019-05-13T14:07:46.270Z,20.85
2019-05-13T14:10:16.374Z,20.97
2019-05-13T14:12:46.785Z,21.41
2019-05-13T14:15:17.752Z,19.63
2019-05-13T14:17:47.559Z,19.55
2019-05-13T14:20:17.126Z,20.38
2019-05-13T14:22:46.275Z,21.41
2019-05-13T14:25:18.019Z,21.85
2019-05-13T14:27:47.179Z,20.97
2019-05-13T14:30:16.673Z,19.93
2019-05-13T14:32:47.285Z,20.83
2019-05-13T14:35:16.465Z,21.09
2019-05-13T14:37:45.655Z,21.33
2019-05-13T14:40:15.068Z,20.98
2019-05-13T14:42:44.229Z,21.18
2019-05-13T14:45:13.488Z,21.18
2019-05-13T14:47:43.232Z,21.42
2019-05-13T14:50:13.192Z,21.00
2019-05-13T14:52:42.405Z,20.90
2019-05-13T14:55:11.696Z,20.31
2019-05-13T14:57:41.933Z,20.78
2019-05-13T15:00:11.915Z,20.39
2019-05-13T15:02:42.126Z,21.40
2019-05-13T15:05:12.142Z,21.71
2019-05-13T15:07:42.676Z,20.75
2019-05-13T15:10:13.709Z,20.54
2019-05-13T15:12:44.030Z,20.86
2019-05-13T15:15:14.530Z,20.97
2019-05-13T15:17:43.724Z,20.65
2019-05-13T15:20:14.198Z,19.64
2019-05-13T15:22:43.966Z,19.71
2019-05-13T15:25:15.733Z,20.05
2019-05-13T15:27:52.541Z,19.80
2019-05-13T15:30:22.371Z,19.90
2019-05-13T15:32:53.135Z,20.47
2019-05-13T15:35:22.295Z,19.27
2019-05-13T15:37:53.857Z,19.69
2019-05-13T15:40:23.375Z,19.84
2019-05-13T15:42:53.636Z,20.79
2019-05-13T15:45:23.923Z,21.15
2019-05-13T15:47:54.144Z,20.96
2019-05-13T15:50:23.303Z,20.87
2019-05-13T15:52:52.522Z,20.78
2019-05-13T15:55:21.966Z,21.54
2019-05-13T15:57:51.904Z,21.47
2019-05-13T16:00:22.705Z,20.82
2019-05-13T16:02:52.329Z,20.93
2019-05-13T16:05:22.521Z,21.53
2019-05-13T16:07:52.382Z,21.82
2019-05-13T16:10:21.689Z,21.25
2019-05-13T16:12:51.807Z,21.17
2019-05-13T16:15:21.718Z,20.25
2019-05-13T16:17:53.015Z,21.21
2019-05-13T16:20:24.734Z,21.32
2019-05-13T16:22:57.318Z,21.49
2019-05-13T16:25:28.537Z,21.61
2019-05-13T16:28:01.609Z,22.42
2019-05-13T16:30:32.255Z,21.82
2019-05-13T16:33:02.968Z,20.95
2019-05-13T16:35:32.712Z,21.14
2019-05-13T16:38:03.375Z,21.66
2019-05-13T16:40:36.410Z,21.60
2019-05-13T16:43:04.057Z,21.45
2019-05-13T16:45:34.690Z,21.82
2019-05-13T16:48:06.686Z,22.02
2019-05-13T16:50:37.080Z,21.30
2019-05-13T16:53:06.597Z,21.57
2019-05-13T16:55:36.081Z,22.13
2019-05-13T16:58:05.266Z,20.92
2019-05-13T17:00:34.449Z,21.00
2019-05-13T17:03:03.646Z,20.86
2019-05-13T17:05:35.227Z,21.27
2019-05-13T17:08:05.488Z,20.99
2019-05-13T17:10:41.990Z,21.65
2019-05-13T17:13:15.988Z,21.56
2019-05-13T17:15:47.618Z,21.06
2019-05-13T17:18:18.031Z,21.27
2019-05-13T17:20:49.105Z,20.62
2019-05-13T17:23:19.227Z,21.34
2019-05-13T17:25:52.062Z,20.81
2019-05-13T17:28:22.105Z,20.72
2019-05-13T17:30:54.989Z,19.84
2019-05-13T17:33:24.087Z,19.87
2019-05-13T17:35:53.277Z,20.35
2019-05-13T17:38:22.448Z,19.86
2019-05-13T17:40:53.809Z,19.43
2019-05-13T17:43:25.069Z,19.48
2019-05-13T17:45:58.238Z,19.71
2019-05-13T17:48:29.625Z,19.82
2019-05-13T17:51:01.863Z,19.39
2019-05-13T17:53:33.063Z,19.10
2019-05-13T17:56:03.757Z,19.02
2019-05-13T17:58:34.550Z,18.98
2019-05-13T18:01:04.064Z,19.04
2019-05-13T18:03:33.238Z,18.75
2019-05-13T18:06:03.293Z,18.20
2019-05-13T18:08:34.582Z,18.50
2019-05-13T18:11:04.395Z,18.45
2019-05-13T18:13:33.594Z,18.65
2019-05-13T18:16:02.909Z,18.26
2019-05-13T18:18:43.078Z,18.24
2019-05-13T18:21:03.272Z,17.99
2019-05-13T18:23:32.442Z,18.14
2019-05-13T18:26:02.489Z,17.85
2019-05-13T18:28:32.545Z,17.85
2019-05-13T18:31:01.989Z,17.65
2019-05-13T18:33:31.884Z,17.83
2019-05-13T18:36:02.058Z,17.77
2019-05-13T18:38:35.935Z,17.68
2019-05-13T18:41:09.322Z,17.42
2019-05-13T18:43:41.379Z,17.09
2019-05-13T18:46:12.369Z,17.04
2019-05-13T18:48:57.739Z,16.86
2019-05-13T18:51:27.187Z,16.64
2019-05-13T18:54:01.147Z,16.73
2019-05-13T18:56:32.317Z,16.43
2019-05-13T18:59:03.032Z,16.13
2019-05-13T19:01:32.499Z,16.28
2019-05-13T19:04:03.221Z,15.97
2019-05-13T19:06:33.623Z,16.03
2019-05-13T19:09:05.961Z,15.63
2019-05-13T19:11:36.142Z,15.56
2019-05-13T19:14:08.123Z,15.69
2019-05-13T19:16:42.098Z,15.42
2019-05-13T19:19:16.242Z,15.21
2019-05-13T19:21:43.526Z,15.17
2019-05-13T19:24:13.413Z,15.14
2019-05-13T19:26:44.083Z,15.20
2019-05-13T19:29:13.252Z,15.05
2019-05-13T19:31:44.915Z,15.12
2019-05-13T19:34:17.563Z,15.03
2019-05-13T19:36:51.732Z,14.97
2019-05-13T19:39:31.201Z,15.02
2019-05-13T19:42:02.795Z,14.82
2019-05-13T19:44:35.209Z,14.76
2019-05-13T19:47:04.418Z,14.62
2019-05-13T19:49:37.162Z,14.66
2019-05-13T19:52:11.844Z,14.44
2019-05-13T19:54:42.786Z,14.29
2019-05-13T19:57:21.121Z,14.27
2019-05-13T19:59:54.703Z,14.18
2019-05-13T20:02:25.882Z,14.25
2019-05-13T20:05:01.232Z,13.89
2019-05-13T20:07:33.823Z,14.04
2019-05-13T20:10:05.000Z,13.74
2019-05-13T20:12:41.962Z,13.78
2019-05-13T20:15:17.640Z,13.80
2019-05-13T20:17:52.132Z,13.72
2019-05-13T20:20:23.603Z,13.52
2019-05-13T20:22:57.386Z,13.52
2019-05-13T20:25:31.191Z,13.48
2019-05-13T20:28:02.629Z,13.38
2019-05-13T20:30:32.730Z,13.01
2019-05-13T20:33:04.392Z,13.18
2019-05-13T20:35:35.098Z,13.32
2019-05-13T20:38:04.726Z,12.94
2019-05-13T20:40:34.245Z,13.05
2019-05-13T20:43:03.679Z,13.06
2019-05-13T20:45:33.874Z,13.02
2019-05-13T20:48:03.328Z,12.92
2019-05-13T20:50:33.679Z,12.86
2019-05-13T20:53:03.624Z,12.81
2019-05-13T20:55:36.557Z,12.92
2019-05-13T20:58:06.112Z,12.58
2019-05-13T21:00:35.306Z,12.48
2019-05-13T21:03:04.746Z,12.50
2019-05-13T21:05:36.017Z,12.25
2019-05-13T21:08:05.500Z,12.23
2019-05-13T21:10:46.213Z,12.04
2019-05-13T21:13:21.325Z,12.12
2019-05-13T21:15:52.031Z,11.95
2019-05-13T21:18:22.294Z,11.83
2019-05-13T21:20:53.915Z,11.53
2019-05-13T21:23:27.219Z,11.83
2019-05-13T21:26:01.855Z,11.36
2019-05-13T21:28:44.001Z,11.44
2019-05-13T21:31:17.380Z,11.49
2019-05-13T21:33:51.397Z,11.23
2019-05-13T21:36:22.683Z,11.15
2019-05-13T21:38:53.114Z,11.13
2019-05-13T21:41:26.738Z,11.30
2019-05-13T21:44:01.381Z,11.02
2019-05-13T21:46:31.808Z,11.10
2019-05-13T21:49:05.470Z,10.92
2019-05-13T21:51:41.976Z,11.01
2019-05-13T21:54:17.671Z,11.12
2019-05-13T21:56:51.603Z,11.12
2019-05-13T21:59:25.631Z,11.12
2019-05-13T22:01:58.171Z,10.93
2019-05-13T22:04:29.752Z,10.97
2019-05-13T22:07:02.412Z,10.93
2019-05-13T22:09:38.746Z,10.99
2019-05-13T22:12:12.977Z,10.93
2019-05-13T22:14:44.406Z,10.57
2019-05-13T22:17:16.758Z,10.56
2019-05-13T22:19:51.247Z,10.42
2019-05-13T22:22:22.097Z,10.50
2019-05-13T22:24:52.765Z,10.48
2019-05-13T22:27:24.095Z,10.42
2019-05-13T22:30:11.710Z,10.35
2019-05-13T22:32:47.252Z,10.41
2019-05-13T22:35:21.728Z,10.10
2019-05-13T22:38:01.753Z,10.15
2019-05-13T22:40:37.884Z,10.26
2019-05-13T22:43:12.173Z,10.28
2019-05-13T22:45:45.723Z,10.19
2019-05-13T22:48:22.263Z,10.10
2019-05-13T22:51:01.347Z,9.97
2019-05-13T22:53:32.114Z,9.97
2019-05-13T22:56:02.293Z,10.03
2019-05-13T22:58:33.045Z,10.10
2019-05-13T23:01:03.349Z,10.00
2019-05-13T23:03:33.123Z,9.90
2019-05-13T23:06:02.323Z,9.88
2019-05-13T23:08:32.454Z,9.61
2019-05-13T23:11:02.179Z,9.46
2019-05-13T23:13:31.590Z,9.46
2019-05-13T23:16:02.316Z,9.48
2019-05-13T23:18:31.913Z,9.42
2019-05-13T23:21:02.256Z,9.51
2019-05-13T23:23:31.891Z,9.57
2019-05-13T23:26:01.457Z,9.59
2019-05-13T23:28:32.298Z,9.46
2019-05-13T23:31:04.393Z,9.46
2019-05-13T23:33:33.932Z,9.29
2019-05-13T23:36:03.831Z,9.48
2019-05-13T23:38:33.305Z,9.48
2019-05-13T23:41:02.468Z,9.54
2019-05-13T23:43:31.954Z,9.40
2019-05-13T23:46:01.494Z,9.58
2019-05-13T23:48:32.079Z,9.67
2019-05-13T23:51:01.993Z,9.66
2019-05-13T23:53:31.918Z,9.65
2019-05-13T23:56:04.468Z,9.39
2019-05-13T23:58:36.089Z,9.48
